createdAt,value
2023-04-19T00:00:12.231Z,10.95
2023-04-19T00:03:01.389Z,11.02
2023-04-19T00:05:50.051Z,11.01
2023-04-19T00:08:38.564Z,11.01
2023-04-19T00:11:27.082Z,10.94
2023-04-19T00:14:17.165Z,10.92
2023-04-19T00:17:05.901Z,11.00
2023-04-19T00:19:54.512Z,11.01
2023-04-19T00:22:42.995Z,10.94
2023-04-19T00:25:31.911Z,10.99
2023-04-19T00:28:20.595Z,10.93
2023-04-19T00:31:10.498Z,10.91
2023-04-19T00:33:58.988Z,10.96
2023-04-19T00:36:47.520Z,10.97
2023-04-19T00:39:36.124Z,10.95
2023-04-19T00:42:24.612Z,10.98
2023-04-19T00:45:13.239Z,10.93
2023-04-19T00:48:03.260Z,10.93
2023-04-19T00:50:52.078Z,10.93
2023-04-19T00:53:41.722Z,10.85
2023-04-19T00:56:30.741Z,10.78
2023-04-19T00:59:19.780Z,10.78
2023-04-19T01:02:08.418Z,10.76
2023-04-19T01:04:58.229Z,10.72
2023-04-19T01:07:46.809Z,10.78
2023-04-19T01:10:35.379Z,10.71
2023-04-19T01:13:23.880Z,10.66
2023-04-19T01:16:12.469Z,10.51
2023-04-19T01:19:00.981Z,10.66
2023-04-19T01:21:52.765Z,10.67
2023-04-19T01:24:42.722Z,10.76
2023-04-19T01:27:31.215Z,10.73
2023-04-19T01:30:19.720Z,10.68
2023-04-19T01:33:08.360Z,10.66
2023-04-19T01:35:56.880Z,10.61
2023-04-19T01:38:47.714Z,10.56
2023-04-19T01:41:37.697Z,10.34
2023-04-19T01:44:26.218Z,10.49
2023-04-19T01:47:14.744Z,10.04
2023-04-19T01:50:03.257Z,10.42
2023-04-19T01:52:51.844Z,10.36
2023-04-19T01:55:40.457Z,10.42
2023-04-19T01:58:30.555Z,10.44
2023-04-19T02:01:19.236Z,10.47
2023-04-19T02:04:08.599Z,10.38
2023-04-19T02:06:58.252Z,10.31
2023-04-19T02:09:46.800Z,10.35
2023-04-19T02:12:35.695Z,10.08
2023-04-19T02:15:25.567Z,10.35
2023-04-19T02:18:14.060Z,10.38
2023-04-19T02:21:02.921Z,10.31
2023-04-19T02:23:51.458Z,10.32
2023-04-19T02:26:40.730Z,9.96
2023-04-19T02:29:29.258Z,10.27
2023-04-19T02:32:19.068Z,10.21
2023-04-19T02:35:08.370Z,10.07
2023-04-19T02:37:56.849Z,10.18
2023-04-19T02:40:45.446Z,10.34
2023-04-19T02:43:33.908Z,10.22
2023-04-19T02:46:22.406Z,10.30
2023-04-19T02:49:12.288Z,10.44
2023-04-19T02:52:00.802Z,10.31
2023-04-19T02:54:49.573Z,10.39
2023-04-19T02:57:38.034Z,10.26
2023-04-19T03:00:26.574Z,10.25
2023-04-19T03:03:15.095Z,10.21
2023-04-19T03:06:05.396Z,10.35
2023-04-19T03:08:53.879Z,10.09
2023-04-19T03:11:42.976Z,10.17
2023-04-19T03:14:31.425Z,10.18
2023-04-19T03:17:19.983Z,10.26
2023-04-19T03:20:11.602Z,10.24
2023-04-19T03:23:01.530Z,9.85
2023-04-19T03:25:50.146Z,10.15
2023-04-19T03:28:38.620Z,10.10
2023-04-19T03:31:27.085Z,10.01
2023-04-19T03:34:15.725Z,10.10
2023-04-19T03:37:04.341Z,10.10
2023-04-19T03:39:54.199Z,10.18
2023-04-19T03:42:42.625Z,10.10
2023-04-19T03:45:31.121Z,10.06
2023-04-19T03:48:19.671Z,10.08
2023-04-19T03:51:08.239Z,10.08
2023-04-19T03:53:56.751Z,10.24
2023-04-19T03:56:46.765Z,10.27
2023-04-19T03:59:36.268Z,10.09
2023-04-19T04:02:24.877Z,10.14
2023-04-19T04:05:13.582Z,10.16
2023-04-19T04:08:02.149Z,10.20
2023-04-19T04:10:50.701Z,10.24
2023-04-19T04:13:40.514Z,10.16
2023-04-19T04:16:29.087Z,10.07
2023-04-19T04:19:18.544Z,10.09
2023-04-19T04:22:07.854Z,10.15
2023-04-19T04:24:58.149Z,10.07
2023-04-19T04:27:47.685Z,10.01
2023-04-19T04:30:37.542Z,9.97
2023-04-19T04:33:26.616Z,9.99
2023-04-19T04:36:15.276Z,10.07
2023-04-19T04:39:03.957Z,10.05
2023-04-19T04:41:53.238Z,10.03
2023-04-19T04:44:42.535Z,9.96
2023-04-19T04:47:33.865Z,9.92
2023-04-19T04:50:22.466Z,9.90
2023-04-19T04:53:13.080Z,9.68
2023-04-19T04:56:01.813Z,9.92
2023-04-19T04:58:50.281Z,9.93
2023-04-19T05:01:38.821Z,10.02
2023-04-19T05:04:28.738Z,10.01
2023-04-19T05:07:17.250Z,10.01
2023-04-19T05:10:06.445Z,9.76
2023-04-19T05:12:54.896Z,9.96
2023-04-19T05:15:43.377Z,9.89
2023-04-19T05:18:31.865Z,10.03
2023-04-19T05:21:21.753Z,9.92
2023-04-19T05:24:10.756Z,10.01
2023-04-19T05:26:59.282Z,9.89
2023-04-19T05:29:47.956Z,9.93
2023-04-19T05:32:36.561Z,9.83
2023-04-19T05:35:25.175Z,9.95
2023-04-19T05:38:15.048Z,9.92
2023-04-19T05:41:03.835Z,10.01
2023-04-19T05:43:52.289Z,9.97
2023-04-19T05:46:40.801Z,10.20
2023-04-19T05:49:29.399Z,10.10
2023-04-19T05:52:17.914Z,10.24
2023-04-19T05:55:08.404Z,10.16
2023-04-19T05:57:56.967Z,10.04
2023-04-19T06:00:45.675Z,10.51
2023-04-19T06:03:34.575Z,10.70
2023-04-19T06:06:23.972Z,10.82
2023-04-19T06:09:13.745Z,10.72
2023-04-19T06:12:03.581Z,10.75
2023-04-19T06:14:52.514Z,10.55
2023-04-19T06:17:41.217Z,10.52
2023-04-19T06:20:29.705Z,10.50
2023-04-19T06:23:18.651Z,10.76
2023-04-19T06:26:07.264Z,10.16
2023-04-19T06:28:57.113Z,11.10
2023-04-19T06:31:46.226Z,11.12
2023-04-19T06:34:34.755Z,11.15
2023-04-19T06:37:23.191Z,11.28
2023-04-19T06:40:12.307Z,10.94
2023-04-19T06:43:00.866Z,11.16
2023-04-19T06:45:51.001Z,11.16
2023-04-19T06:48:39.806Z,11.20
2023-04-19T06:51:28.367Z,11.11
2023-04-19T06:54:17.370Z,11.33
2023-04-19T06:57:06.417Z,11.64
2023-04-19T06:59:55.522Z,11.61
2023-04-19T07:02:45.560Z,11.87
2023-04-19T07:05:34.158Z,11.95
2023-04-19T07:08:23.241Z,11.89
2023-04-19T07:11:11.761Z,12.26
2023-04-19T07:14:00.829Z,11.48
2023-04-19T07:16:50.752Z,12.13
2023-04-19T07:19:42.389Z,12.24
2023-04-19T07:22:30.939Z,12.87
2023-04-19T07:25:19.469Z,12.98
2023-04-19T07:28:07.999Z,13.32
2023-04-19T07:30:56.637Z,13.43
2023-04-19T07:33:45.635Z,13.18
2023-04-19T07:36:37.025Z,13.18
2023-04-19T07:39:25.627Z,13.28
2023-04-19T07:42:14.224Z,13.48
2023-04-19T07:45:03.966Z,13.83
2023-04-19T07:47:52.593Z,13.97
2023-04-19T07:50:41.194Z,14.18
2023-04-19T07:53:31.032Z,14.40
2023-04-19T07:56:20.098Z,14.10
2023-04-19T07:59:09.583Z,13.95
2023-04-19T08:01:58.269Z,13.86
2023-04-19T08:04:48.398Z,13.99
2023-04-19T08:07:37.875Z,14.30
2023-04-19T08:10:28.834Z,14.89
2023-04-19T08:13:17.445Z,14.70
2023-04-19T08:18:57.759Z,14.67
2023-04-19T08:21:46.354Z,14.73
2023-04-19T08:24:34.830Z,14.87
2023-04-19T08:27:27.020Z,15.36
2023-04-19T08:30:15.932Z,15.56
2023-04-19T08:33:04.687Z,15.32
2023-04-19T08:35:53.420Z,14.55
2023-04-19T08:38:44.608Z,14.45
2023-04-19T08:41:36.906Z,14.43
2023-04-19T08:44:35.759Z,14.47
2023-04-19T08:47:31.178Z,14.50
2023-04-19T08:50:32.410Z,14.56
2023-04-19T08:53:25.626Z,14.10
2023-04-19T08:56:27.704Z,13.62
2023-04-19T08:59:21.160Z,13.71
2023-04-19T09:02:11.280Z,13.54
2023-04-19T09:05:01.473Z,13.23
2023-04-19T09:07:50.695Z,13.47
2023-04-19T09:10:47.036Z,13.27
2023-04-19T09:13:38.243Z,13.39
2023-04-19T09:16:27.033Z,13.46
2023-04-19T09:19:23.958Z,13.51
2023-04-19T09:22:13.784Z,13.39
2023-04-19T09:25:37.240Z,13.56
2023-04-19T09:28:12.015Z,13.44
2023-04-19T09:31:33.058Z,13.50
2023-04-19T09:34:24.098Z,13.47
2023-04-19T09:37:22.745Z,13.68
2023-04-19T09:40:24.789Z,13.49
2023-04-19T09:43:45.278Z,13.57
2023-04-19T09:46:32.055Z,13.21
2023-04-19T09:49:33.476Z,13.65
2023-04-19T09:52:29.990Z,13.85
2023-04-19T09:55:26.664Z,13.90
2023-04-19T09:58:16.573Z,13.86
2023-04-19T10:01:14.756Z,13.99
2023-04-19T10:04:14.822Z,13.86
2023-04-19T10:10:18.433Z,14.24
2023-04-19T10:13:19.124Z,14.37
2023-04-19T10:16:18.987Z,14.32
2023-04-19T10:19:11.641Z,14.19
2023-04-19T10:22:00.398Z,14.10
2023-04-19T10:25:12.786Z,13.78
2023-04-19T10:28:01.417Z,13.74
2023-04-19T10:31:01.600Z,13.72
2023-04-19T10:33:50.826Z,13.78
2023-04-19T10:36:39.314Z,13.87
2023-04-19T10:39:40.975Z,13.83
2023-04-19T10:43:02.686Z,13.72
2023-04-19T10:45:52.970Z,13.74
2023-04-19T10:48:44.314Z,13.65
2023-04-19T10:51:35.731Z,13.71
2023-04-19T10:54:31.274Z,13.75
2023-04-19T10:57:19.851Z,13.62
2023-04-19T11:00:21.530Z,13.52
2023-04-19T11:03:47.578Z,13.56
2023-04-19T11:06:37.969Z,13.77
2023-04-19T11:09:26.906Z,13.51
2023-04-19T11:12:17.093Z,13.98
2023-04-19T11:15:09.387Z,13.98
2023-04-19T11:18:11.994Z,13.91
2023-04-19T11:21:01.632Z,13.98
2023-04-19T11:24:07.021Z,14.06
2023-04-19T11:26:57.619Z,14.09
2023-04-19T11:29:46.133Z,14.04
2023-04-19T11:32:35.080Z,13.92
2023-04-19T11:35:24.923Z,13.89
2023-04-19T11:38:14.300Z,13.94
2023-04-19T11:41:05.436Z,13.99
2023-04-19T11:43:53.892Z,13.95
2023-04-19T11:46:42.456Z,13.91
2023-04-19T11:49:32.203Z,13.94
2023-04-19T11:52:24.970Z,13.99
2023-04-19T11:55:20.087Z,13.99
2023-04-19T11:58:10.549Z,13.92
2023-04-19T12:01:06.053Z,13.92
2023-04-19T12:03:56.463Z,13.74
2023-04-19T12:06:45.156Z,13.81
2023-04-19T12:09:36.113Z,13.46
2023-04-19T12:12:33.751Z,13.72
2023-04-19T12:15:25.851Z,11.03
2023-04-19T12:18:15.857Z,12.87
2023-04-19T12:21:06.498Z,13.50
2023-04-19T12:23:56.941Z,13.36
2023-04-19T12:28:14.499Z,13.31
2023-04-19T12:30:04.243Z,13.20
2023-04-19T12:32:55.551Z,13.09
2023-04-19T12:35:45.007Z,13.10
2023-04-19T12:38:33.597Z,13.07
2023-04-19T12:41:22.612Z,13.05
2023-04-19T12:44:11.181Z,13.13
2023-04-19T12:46:59.626Z,13.08
2023-04-19T12:49:49.563Z,13.11
2023-04-19T12:52:38.424Z,12.94
2023-04-19T12:55:26.988Z,12.81
2023-04-19T12:58:15.738Z,12.36
2023-04-19T13:01:04.319Z,12.67
2023-04-19T13:03:53.754Z,12.57
2023-04-19T13:06:45.871Z,12.35
2023-04-19T13:09:34.416Z,12.36
2023-04-19T13:12:23.810Z,12.21
2023-04-19T13:15:12.856Z,12.23
2023-04-19T13:18:01.438Z,12.13
2023-04-19T13:20:50.301Z,12.15
2023-04-19T13:23:40.449Z,12.03
2023-04-19T13:26:28.957Z,12.02
2023-04-19T13:29:17.621Z,12.10
2023-04-19T13:32:07.681Z,11.48
2023-04-19T13:34:56.394Z,12.16
2023-04-19T13:37:47.168Z,12.17
2023-04-19T13:40:37.002Z,12.06
2023-04-19T13:43:25.551Z,12.09
2023-04-19T13:46:14.219Z,12.21
2023-04-19T13:49:02.817Z,12.20
2023-04-19T13:51:51.409Z,12.26
2023-04-19T13:54:39.967Z,12.22
2023-04-19T13:57:29.825Z,12.18
2023-04-19T14:00:19.404Z,12.17
2023-04-19T14:03:07.943Z,12.13
2023-04-19T14:05:56.871Z,12.16
2023-04-19T14:08:45.352Z,12.32
2023-04-19T14:11:34.235Z,12.30
2023-04-19T14:14:24.060Z,12.43
2023-04-19T14:17:12.657Z,12.49
2023-04-19T14:20:01.259Z,12.38
2023-04-19T14:22:49.853Z,12.25
2023-04-19T14:25:38.526Z,12.13
2023-04-19T14:28:27.197Z,12.27
2023-04-19T14:31:17.138Z,12.42
2023-04-19T14:34:05.864Z,12.32
2023-04-19T14:36:54.438Z,12.53
2023-04-19T14:39:42.957Z,12.60
2023-04-19T14:42:31.591Z,12.56
2023-04-19T14:45:20.514Z,12.55
2023-04-19T14:48:10.563Z,12.30
2023-04-19T14:50:59.168Z,12.59
2023-04-19T14:53:47.621Z,13.02
2023-04-19T14:56:37.886Z,13.12
2023-04-19T14:59:28.178Z,13.23
2023-04-19T15:02:18.400Z,12.41
2023-04-19T15:05:09.701Z,12.93
2023-04-19T15:07:58.395Z,12.80
2023-04-19T15:10:46.878Z,13.03
2023-04-19T15:13:35.895Z,12.88
2023-04-19T15:16:24.398Z,13.03
2023-04-19T15:19:12.978Z,13.09
2023-04-19T15:22:04.122Z,12.90
2023-04-19T15:24:52.733Z,12.99
2023-04-19T15:27:42.293Z,12.79
2023-04-19T15:30:30.940Z,12.82
2023-04-19T15:33:19.441Z,12.82
2023-04-19T15:36:08.217Z,12.77
2023-04-19T15:38:58.837Z,12.75
2023-04-19T15:41:47.318Z,12.63
2023-04-19T15:44:35.787Z,12.87
2023-04-19T15:47:24.336Z,12.80
2023-04-19T15:50:12.787Z,12.97
2023-04-19T15:53:01.255Z,12.93
2023-04-19T15:55:51.174Z,12.97
2023-04-19T15:58:39.899Z,12.78
2023-04-19T16:01:28.451Z,13.13
2023-04-19T16:04:17.358Z,13.20
2023-04-19T16:07:06.319Z,13.23
2023-04-19T16:09:54.821Z,13.11
2023-04-19T16:12:44.741Z,12.95
2023-04-19T16:15:33.663Z,12.90
2023-04-19T16:18:22.203Z,12.24
2023-04-19T16:21:11.594Z,12.31
2023-04-19T16:24:00.832Z,12.11
2023-04-19T16:26:49.416Z,11.31
2023-04-19T16:29:39.317Z,12.00
2023-04-19T16:32:28.042Z,11.86
2023-04-19T16:35:18.256Z,11.84
2023-04-19T16:38:07.010Z,11.87
2023-04-19T16:40:55.850Z,11.39
2023-04-19T16:43:44.683Z,11.53
2023-04-19T16:46:34.588Z,11.55
2023-04-19T16:49:23.364Z,11.40
2023-04-19T16:52:12.054Z,11.31
2023-04-19T16:55:03.375Z,11.31
2023-04-19T16:57:53.707Z,11.42
2023-04-19T17:00:42.361Z,11.37
2023-04-19T17:03:32.477Z,11.55
2023-04-19T17:06:21.056Z,11.52
2023-04-19T17:09:09.638Z,11.08
2023-04-19T17:11:58.281Z,11.49
2023-04-19T17:14:46.802Z,11.48
2023-04-19T17:17:35.466Z,11.51
2023-04-19T17:20:25.582Z,11.55
2023-04-19T17:23:14.348Z,11.55
2023-04-19T17:26:02.860Z,11.50
2023-04-19T17:28:51.480Z,11.79
2023-04-19T17:31:40.031Z,11.88
2023-04-19T17:34:28.579Z,11.85
2023-04-19T17:37:18.475Z,11.80
2023-04-19T17:40:08.432Z,11.90
2023-04-19T17:42:56.942Z,11.97
2023-04-19T17:45:45.456Z,12.00
2023-04-19T17:48:34.048Z,11.93
2023-04-19T17:51:22.582Z,11.69
2023-04-19T17:54:12.704Z,11.99
2023-04-19T17:57:02.644Z,12.02
2023-04-19T17:59:51.143Z,11.95
2023-04-19T18:02:40.613Z,11.84
2023-04-19T18:05:29.338Z,11.85
2023-04-19T18:08:17.862Z,11.85
2023-04-19T18:11:07.915Z,11.78
2023-04-19T18:13:56.791Z,11.72
2023-04-19T18:16:45.325Z,11.71
2023-04-19T18:19:33.923Z,11.70
2023-04-19T18:22:22.414Z,11.68
2023-04-19T18:25:11.223Z,11.51
2023-04-19T18:28:01.032Z,11.43
2023-04-19T18:30:49.585Z,11.44
2023-04-19T18:33:38.092Z,11.39
2023-04-19T18:36:28.111Z,11.16
2023-04-19T18:39:18.701Z,11.20
2023-04-19T18:42:07.401Z,10.97
2023-04-19T18:44:57.247Z,11.04
2023-04-19T18:47:45.824Z,10.99
2023-04-19T18:50:34.430Z,10.86
2023-04-19T18:53:22.997Z,10.70
2023-04-19T18:56:12.044Z,10.72
2023-04-19T18:59:01.875Z,10.72
2023-04-19T19:01:52.361Z,10.74
2023-04-19T19:04:52.249Z,10.70
2023-04-19T19:07:46.346Z,10.64
2023-04-19T19:13:29.755Z,10.58
2023-04-19T19:16:19.711Z,10.61
2023-04-19T19:19:09.848Z,10.42
2023-04-19T19:21:58.387Z,10.35
2023-04-19T19:24:46.994Z,10.22
2023-04-19T19:27:35.604Z,10.22
2023-04-19T19:30:25.552Z,10.17
2023-04-19T19:33:14.210Z,10.16
2023-04-19T19:36:04.220Z,10.14
2023-04-19T19:38:52.768Z,10.07
2023-04-19T19:44:37.998Z,10.10
2023-04-19T19:47:27.628Z,10.08
2023-04-19T19:53:09.724Z,9.86
2023-04-19T19:55:58.434Z,9.88
2023-04-19T19:58:51.489Z,9.90
2023-04-19T20:01:41.122Z,9.88
2023-04-19T20:04:29.862Z,9.86
2023-04-19T20:10:14.707Z,9.72
2023-04-19T20:13:03.456Z,9.66
2023-04-19T20:15:52.657Z,9.53
2023-04-19T20:18:42.505Z,9.43
2023-04-19T20:21:31.285Z,9.38
2023-04-19T20:24:21.621Z,9.32
2023-04-19T20:27:11.494Z,9.18
2023-04-19T20:30:00.630Z,9.07
2023-04-19T20:32:50.408Z,8.72
2023-04-19T20:35:39.190Z,8.68
2023-04-19T20:38:27.777Z,8.72
2023-04-19T20:41:16.335Z,8.67
2023-04-19T20:44:06.522Z,8.56
2023-04-19T20:46:56.148Z,8.51
2023-04-19T20:49:44.697Z,8.48
2023-04-19T20:52:33.207Z,8.60
2023-04-19T20:55:21.724Z,8.74
2023-04-19T20:58:10.723Z,8.71
2023-04-19T21:01:00.699Z,8.81
2023-04-19T21:03:49.473Z,8.67
2023-04-19T21:06:38.544Z,8.47
2023-04-19T21:09:27.121Z,8.37
2023-04-19T21:12:15.980Z,8.29
2023-04-19T21:15:05.613Z,8.21
2023-04-19T21:17:55.567Z,8.13
2023-04-19T21:20:44.158Z,8.14
2023-04-19T21:23:32.570Z,8.04
2023-04-19T21:26:21.173Z,7.89
2023-04-19T21:29:09.629Z,7.80
2023-04-19T21:31:58.385Z,7.65
2023-04-19T21:34:48.419Z,7.57
2023-04-19T21:37:37.245Z,7.40
2023-04-19T21:40:25.961Z,7.32
2023-04-19T21:43:14.468Z,7.20
2023-04-19T21:46:04.978Z,7.06
2023-04-19T21:48:55.702Z,6.83
2023-04-19T21:51:46.256Z,6.80
2023-04-19T21:54:35.046Z,6.77
2023-04-19T21:57:24.696Z,6.73
2023-04-19T22:00:14.150Z,6.68
2023-04-19T22:03:03.018Z,6.66
2023-04-19T22:05:51.664Z,6.58
2023-04-19T22:08:42.363Z,6.54
2023-04-19T22:11:31.373Z,6.43
2023-04-19T22:14:19.873Z,6.32
2023-04-19T22:17:09.010Z,6.22
2023-04-19T22:19:59.058Z,6.21
2023-04-19T22:22:47.662Z,6.22
2023-04-19T22:25:37.622Z,6.10
2023-04-19T22:28:26.888Z,6.01
2023-04-19T22:31:15.415Z,5.89
2023-04-19T22:34:03.947Z,5.88
2023-04-19T22:36:52.652Z,5.82
2023-04-19T22:39:41.192Z,5.75
2023-04-19T22:42:31.055Z,5.68
2023-04-19T22:45:19.676Z,5.71
2023-04-19T22:48:08.197Z,5.69
2023-04-19T22:50:56.861Z,5.67
2023-04-19T22:53:45.729Z,5.68
2023-04-19T22:56:34.324Z,5.63
2023-04-19T22:59:24.127Z,5.62
2023-04-19T23:02:12.639Z,5.57
2023-04-19T23:05:03.384Z,5.53
2023-04-19T23:07:51.937Z,5.52
2023-04-19T23:10:42.441Z,5.44
2023-04-19T23:13:30.984Z,5.32
2023-04-19T23:16:20.963Z,5.00
2023-04-19T23:19:09.513Z,5.28
2023-04-19T23:21:58.004Z,5.23
2023-04-19T23:24:46.536Z,5.21
2023-04-19T23:27:35.479Z,5.19
2023-04-19T23:30:24.340Z,4.72
2023-04-19T23:33:14.164Z,5.16
2023-04-19T23:36:02.662Z,5.06
2023-04-19T23:38:51.286Z,4.99
2023-04-19T23:41:39.802Z,4.19
2023-04-19T23:44:28.288Z,4.75
2023-04-19T23:47:16.829Z,4.92
2023-04-19T23:50:07.695Z,4.82
2023-04-19T23:52:56.310Z,4.78
2023-04-19T23:55:44.762Z,4.82
2023-04-19T23:58:33.251Z,4.78
